createdAt,value
2023-05-05T00:01:03.540Z,6.35
2023-05-05T00:03:31.235Z,6.72
2023-05-05T00:05:58.947Z,6.13
2023-05-05T00:08:26.670Z,6.85
2023-05-05T00:10:54.718Z,6.25
2023-05-05T00:13:23.084Z,6.03
2023-05-05T00:15:52.571Z,6.13
2023-05-05T00:18:21.436Z,6.03
2023-05-05T00:20:49.257Z,5.82
2023-05-05T00:23:17.444Z,6.32
2023-05-05T00:25:44.808Z,6.00
2023-05-05T00:28:14.323Z,5.75
2023-05-05T00:30:42.165Z,5.72
2023-05-05T00:33:09.765Z,6.32
2023-05-05T00:35:37.170Z,6.03
2023-05-05T00:38:05.174Z,5.50
2023-05-05T00:40:32.513Z,5.63
2023-05-05T00:43:00.147Z,5.50
2023-05-05T00:45:27.774Z,5.88
2023-05-05T00:47:59.528Z,5.22
2023-05-05T00:50:30.452Z,5.00
2023-05-05T00:53:04.514Z,5.88
2023-05-05T00:55:34.024Z,5.78
2023-05-05T00:58:04.140Z,5.80
2023-05-05T01:00:31.711Z,5.88
2023-05-05T01:03:00.025Z,5.82
2023-05-05T01:05:37.348Z,6.20
2023-05-05T01:08:19.527Z,6.03
2023-05-05T01:11:03.267Z,7.20
2023-05-05T01:13:53.449Z,5.93
2023-05-05T01:16:27.711Z,7.70
2023-05-05T01:19:17.253Z,6.93
2023-05-05T01:21:53.640Z,7.00
2023-05-05T01:24:58.246Z,6.50
2023-05-05T01:27:49.620Z,6.70
2023-05-05T01:30:50.103Z,7.40
2023-05-05T01:33:27.428Z,10.05
2023-05-05T01:36:06.725Z,13.27
2023-05-05T01:38:42.793Z,12.43
2023-05-05T01:41:10.190Z,7.57
2023-05-05T01:43:39.852Z,6.50
2023-05-05T01:46:09.044Z,11.48
2023-05-05T01:48:38.941Z,12.93
2023-05-05T01:51:10.566Z,19.05
2023-05-05T01:53:39.871Z,17.95
2023-05-05T01:56:09.813Z,18.75
2023-05-05T01:58:38.827Z,9.25
2023-05-05T02:01:06.901Z,6.47
2023-05-05T02:03:37.288Z,6.13
2023-05-05T02:06:08.492Z,5.63
2023-05-05T02:08:39.537Z,6.97
2023-05-05T02:11:11.648Z,6.65
2023-05-05T02:13:42.864Z,5.22
2023-05-05T02:16:11.722Z,5.95
2023-05-05T02:18:39.739Z,5.55
2023-05-05T02:21:08.128Z,6.22
2023-05-05T02:23:36.441Z,7.38
2023-05-05T02:26:08.376Z,6.28
2023-05-05T02:28:51.725Z,6.93
2023-05-05T02:31:24.101Z,6.30
2023-05-05T02:33:53.431Z,6.15
2023-05-05T02:36:27.919Z,5.93
2023-05-05T02:39:01.313Z,6.15
2023-05-05T02:41:33.091Z,5.95
2023-05-05T02:44:04.416Z,5.75
2023-05-05T02:46:32.665Z,5.78
2023-05-05T02:49:00.123Z,5.28
2023-05-05T02:51:27.767Z,5.57
2023-05-05T02:53:55.574Z,6.40
2023-05-05T02:56:48.979Z,5.90
2023-05-05T02:59:47.470Z,5.80
2023-05-05T03:02:39.421Z,5.68
2023-05-05T03:05:41.345Z,6.13
2023-05-05T03:08:18.555Z,5.85
2023-05-05T03:11:00.452Z,6.90
2023-05-05T03:13:30.183Z,6.60
2023-05-05T03:16:00.169Z,6.30
2023-05-05T03:18:31.452Z,5.70
2023-05-05T03:21:07.995Z,6.55
2023-05-05T03:23:36.692Z,5.90
2023-05-05T03:26:04.026Z,5.93
2023-05-05T03:28:31.752Z,6.32
2023-05-05T03:30:59.171Z,5.00
2023-05-05T03:33:26.678Z,5.75
2023-05-05T03:35:53.924Z,5.25
2023-05-05T03:38:21.447Z,5.90
2023-05-05T03:40:48.744Z,6.38
2023-05-05T03:43:16.389Z,6.03
2023-05-05T03:45:43.675Z,6.28
2023-05-05T03:48:11.258Z,6.10
2023-05-05T03:50:38.489Z,7.18
2023-05-05T03:53:06.030Z,6.20
2023-05-05T03:55:33.357Z,5.97
2023-05-05T03:58:00.994Z,6.63
2023-05-05T04:00:28.276Z,6.43
2023-05-05T04:02:56.346Z,6.03
2023-05-05T04:05:23.776Z,6.30
2023-05-05T04:07:51.350Z,7.13
2023-05-05T04:10:18.714Z,6.10
2023-05-05T04:12:46.544Z,5.65
2023-05-05T04:15:13.874Z,6.43
2023-05-05T04:17:41.410Z,5.65
2023-05-05T04:20:09.811Z,5.93
2023-05-05T04:22:37.720Z,5.75
2023-05-05T04:25:05.589Z,6.07
2023-05-05T04:27:33.231Z,5.82
2023-05-05T04:30:00.494Z,6.18
2023-05-05T04:32:28.423Z,5.82
2023-05-05T04:34:55.895Z,6.20
2023-05-05T04:37:23.587Z,6.03
2023-05-05T04:39:50.954Z,6.00
2023-05-05T04:42:18.579Z,6.47
2023-05-05T04:44:46.177Z,6.13
2023-05-05T04:47:14.742Z,5.72
2023-05-05T04:49:42.127Z,6.03
2023-05-05T04:52:11.921Z,6.10
2023-05-05T04:54:39.240Z,5.82
2023-05-05T04:57:07.416Z,5.97
2023-05-05T04:59:35.328Z,5.40
2023-05-05T05:02:03.298Z,5.80
2023-05-05T05:04:31.176Z,5.35
2023-05-05T05:06:59.360Z,5.55
2023-05-05T05:09:26.785Z,5.80
2023-05-05T05:11:54.350Z,5.07
2023-05-05T05:14:21.964Z,5.45
2023-05-05T05:16:52.377Z,5.75
2023-05-05T05:19:19.898Z,5.90
2023-05-05T05:21:47.436Z,6.25
2023-05-05T05:24:14.670Z,5.22
2023-05-05T05:26:42.407Z,6.13
2023-05-05T05:29:09.658Z,6.10
2023-05-05T05:31:37.273Z,5.65
2023-05-05T05:34:04.516Z,5.20
2023-05-05T05:36:32.214Z,5.47
2023-05-05T05:38:59.440Z,5.20
2023-05-05T05:41:26.938Z,5.72
2023-05-05T05:43:54.214Z,5.15
2023-05-05T05:46:21.885Z,5.72
2023-05-05T05:48:49.203Z,10.35
2023-05-05T05:51:16.784Z,7.20
2023-05-05T05:53:44.034Z,5.15
2023-05-05T05:56:11.524Z,10.23
2023-05-05T05:58:39.195Z,12.82
2023-05-05T06:01:06.863Z,16.65
2023-05-05T06:03:34.626Z,6.05
2023-05-05T06:06:02.388Z,5.53
2023-05-05T06:08:29.648Z,8.45
2023-05-05T06:10:57.190Z,27.70
2023-05-05T06:13:25.331Z,18.67
2023-05-05T06:15:52.902Z,8.13
2023-05-05T06:18:20.289Z,4.25
2023-05-05T06:20:52.497Z,4.45
2023-05-05T06:23:19.900Z,4.60
2023-05-05T06:25:47.713Z,4.30
2023-05-05T06:28:14.990Z,4.10
2023-05-05T06:30:42.536Z,4.75
2023-05-05T06:33:09.775Z,4.90
2023-05-05T06:35:37.379Z,4.07
2023-05-05T06:38:04.597Z,3.92
2023-05-05T06:40:32.142Z,3.88
2023-05-05T06:42:59.344Z,4.70
2023-05-05T06:45:27.033Z,4.88
2023-05-05T06:47:54.312Z,5.20
2023-05-05T06:50:22.124Z,3.63
2023-05-05T06:52:49.345Z,3.78
2023-05-05T06:55:17.093Z,3.95
2023-05-05T06:57:44.322Z,3.53
2023-05-05T07:00:13.976Z,3.42
2023-05-05T07:02:41.937Z,5.82
2023-05-05T07:05:10.653Z,9.80
2023-05-05T07:07:38.993Z,9.73
2023-05-05T07:10:07.726Z,6.97
2023-05-05T07:12:36.082Z,4.40
2023-05-05T07:15:15.401Z,4.78
2023-05-05T07:17:51.164Z,4.50
2023-05-05T07:20:19.074Z,3.88
2023-05-05T07:22:46.349Z,3.72
2023-05-05T07:25:13.825Z,3.85
2023-05-05T07:27:41.304Z,3.60
2023-05-05T07:30:13.211Z,3.92
2023-05-05T07:32:42.748Z,3.65
2023-05-05T07:35:10.957Z,3.33
2023-05-05T07:37:38.261Z,3.33
2023-05-05T07:40:07.146Z,2.72
2023-05-05T07:42:34.532Z,3.22
2023-05-05T07:45:02.435Z,3.08
2023-05-05T07:47:29.797Z,2.83
2023-05-05T07:49:58.008Z,2.40
2023-05-05T07:52:43.729Z,2.38
2023-05-05T07:55:12.502Z,2.72
2023-05-05T07:57:39.796Z,2.40
2023-05-05T08:00:09.572Z,2.33
2023-05-05T08:02:37.265Z,2.20
2023-05-05T08:05:05.335Z,2.10
2023-05-05T08:07:32.742Z,2.55
2023-05-05T08:10:00.270Z,2.50
2023-05-05T08:12:27.536Z,2.25
2023-05-05T08:14:55.059Z,2.30
2023-05-05T08:17:22.386Z,2.17
2023-05-05T08:19:53.042Z,3.92
2023-05-05T08:22:22.204Z,2.65
2023-05-05T08:24:49.723Z,2.50
2023-05-05T08:27:17.050Z,2.17
2023-05-05T08:29:44.601Z,3.17
2023-05-05T08:32:11.851Z,3.10
2023-05-05T08:34:39.302Z,2.20
2023-05-05T08:37:06.568Z,2.08
2023-05-05T08:39:34.058Z,2.83
2023-05-05T08:42:02.488Z,2.28
2023-05-05T08:44:30.034Z,3.03
2023-05-05T08:47:00.631Z,3.42
2023-05-05T08:49:43.923Z,2.30
2023-05-05T08:52:14.601Z,1.83
2023-05-05T08:54:54.842Z,2.88
2023-05-05T08:57:34.924Z,2.10
2023-05-05T09:00:04.345Z,2.20
2023-05-05T09:02:34.483Z,2.22
2023-05-05T09:05:05.460Z,2.55
2023-05-05T09:07:34.860Z,2.58
2023-05-05T09:10:05.849Z,3.22
2023-05-05T09:12:33.324Z,2.20
2023-05-05T09:15:03.687Z,2.88
2023-05-05T09:17:31.778Z,8.02
2023-05-05T09:20:14.206Z,4.53
2023-05-05T09:22:44.679Z,3.90
2023-05-05T09:25:16.126Z,2.60
2023-05-05T09:27:49.426Z,2.72
2023-05-05T09:30:29.761Z,2.80
2023-05-05T09:32:57.033Z,3.03
2023-05-05T09:35:24.576Z,2.70
2023-05-05T09:37:51.842Z,6.35
2023-05-05T09:40:22.346Z,3.55
2023-05-05T09:43:01.891Z,2.00
2023-05-05T09:45:29.425Z,3.25
2023-05-05T09:48:00.195Z,1.80
2023-05-05T09:50:31.155Z,5.38
2023-05-05T09:53:02.140Z,2.63
2023-05-05T09:55:33.599Z,1.58
2023-05-05T09:58:31.201Z,4.32
2023-05-05T10:01:01.394Z,2.60
2023-05-05T10:03:28.626Z,1.67
2023-05-05T10:05:59.110Z,1.70
2023-05-05T10:08:34.351Z,1.48
2023-05-05T10:11:06.993Z,1.70
2023-05-05T10:13:43.080Z,2.47
2023-05-05T10:16:13.297Z,1.35
2023-05-05T10:18:46.704Z,1.33
2023-05-05T10:21:21.786Z,1.65
2023-05-05T10:24:02.136Z,1.50
2023-05-05T10:26:40.898Z,1.98
2023-05-05T10:29:49.626Z,1.27
2023-05-05T10:32:56.830Z,1.20
2023-05-05T10:35:27.739Z,1.23
2023-05-05T10:37:57.826Z,1.05
2023-05-05T10:40:25.888Z,0.98
2023-05-05T10:42:55.708Z,2.15
2023-05-05T10:45:22.975Z,1.25
2023-05-05T10:47:53.195Z,1.30
2023-05-05T10:50:59.058Z,1.40
2023-05-05T10:53:36.794Z,1.30
2023-05-05T10:56:26.866Z,2.33
2023-05-05T10:59:00.055Z,3.15
2023-05-05T11:01:32.614Z,1.88
2023-05-05T11:04:23.869Z,1.52
2023-05-05T11:07:13.454Z,1.30
2023-05-05T11:10:03.926Z,1.27
2023-05-05T11:12:34.081Z,1.65
2023-05-05T11:15:31.766Z,1.25
2023-05-05T11:18:05.657Z,1.70
2023-05-05T11:20:37.708Z,1.70
2023-05-05T11:23:05.142Z,1.52
2023-05-05T11:25:42.233Z,1.40
2023-05-05T11:28:18.714Z,1.40
2023-05-05T11:30:55.443Z,1.50
2023-05-05T11:33:38.370Z,1.48
2023-05-05T11:36:07.464Z,1.60
2023-05-05T11:39:09.776Z,2.50
2023-05-05T11:42:31.808Z,1.80
2023-05-05T11:44:59.550Z,1.60
2023-05-05T11:47:29.295Z,1.63
2023-05-05T11:49:57.062Z,1.75
2023-05-05T11:52:26.481Z,1.85
2023-05-05T11:54:53.943Z,1.77
2023-05-05T11:57:29.185Z,1.90
2023-05-05T12:00:04.568Z,2.60
2023-05-05T12:02:32.414Z,1.88
2023-05-05T12:05:01.752Z,1.90
2023-05-05T12:07:33.271Z,1.67
2023-05-05T12:10:01.635Z,2.40
2023-05-05T12:12:40.969Z,2.63
2023-05-05T12:15:09.738Z,1.77
2023-05-05T12:17:40.888Z,2.58
2023-05-05T12:20:10.249Z,11.45
2023-05-05T12:22:38.893Z,3.80
2023-05-05T12:25:09.072Z,1.90
2023-05-05T12:27:36.775Z,2.30
2023-05-05T12:30:16.108Z,2.15
2023-05-05T12:32:44.614Z,2.33
2023-05-05T12:35:13.769Z,1.85
2023-05-05T12:37:43.076Z,1.95
2023-05-05T12:40:45.578Z,1.95
2023-05-05T12:43:35.369Z,2.30
2023-05-05T12:46:14.017Z,1.85
2023-05-05T12:48:46.403Z,1.60
2023-05-05T12:51:25.691Z,1.70
2023-05-05T12:54:11.476Z,1.80
2023-05-05T12:56:47.777Z,2.05
2023-05-05T12:59:24.505Z,1.98
2023-05-05T13:01:54.088Z,1.63
2023-05-05T13:04:26.303Z,2.10
2023-05-05T13:07:13.888Z,3.53
2023-05-05T13:09:42.495Z,3.20
2023-05-05T13:12:12.971Z,2.72
2023-05-05T13:14:41.966Z,1.85
2023-05-05T13:17:11.040Z,2.05
2023-05-05T13:19:42.814Z,2.30
2023-05-05T13:22:10.504Z,2.03
2023-05-05T13:24:56.575Z,2.05
2023-05-05T13:27:23.933Z,8.10
2023-05-05T13:29:51.563Z,4.30
2023-05-05T13:32:18.959Z,3.60
2023-05-05T13:34:46.698Z,2.97
2023-05-05T13:37:14.024Z,2.10
2023-05-05T13:39:41.684Z,2.30
2023-05-05T13:42:13.920Z,1.88
2023-05-05T13:44:41.552Z,2.15
2023-05-05T13:47:08.973Z,1.98
2023-05-05T13:49:36.633Z,2.10
2023-05-05T13:52:04.025Z,1.85
2023-05-05T13:54:37.651Z,2.03
2023-05-05T13:57:05.032Z,1.80
2023-05-05T13:59:32.681Z,2.22
2023-05-05T14:02:01.099Z,2.22
2023-05-05T14:04:28.699Z,2.53
2023-05-05T14:06:58.300Z,1.98
2023-05-05T14:09:25.846Z,2.13
2023-05-05T14:11:53.624Z,1.63
2023-05-05T14:14:21.115Z,2.60
2023-05-05T14:16:50.256Z,31.60
2023-05-05T14:19:18.084Z,3.45
2023-05-05T14:21:45.302Z,2.30
2023-05-05T14:24:12.821Z,2.10
2023-05-05T14:26:40.264Z,2.20
2023-05-05T14:29:07.908Z,3.13
2023-05-05T14:31:36.308Z,2.10
2023-05-05T14:34:04.666Z,2.42
2023-05-05T14:36:31.935Z,2.72
2023-05-05T14:38:59.459Z,3.50
2023-05-05T14:41:26.847Z,2.30
2023-05-05T14:43:54.422Z,1.98
2023-05-05T14:46:21.788Z,2.05
2023-05-05T14:48:49.416Z,1.95
2023-05-05T14:51:16.908Z,3.60
2023-05-05T14:53:44.553Z,2.28
2023-05-05T14:56:12.008Z,3.42
2023-05-05T14:58:39.776Z,3.15
2023-05-05T15:01:07.396Z,1.90
2023-05-05T15:03:35.194Z,1.90
2023-05-05T15:06:02.573Z,1.95
2023-05-05T15:08:30.157Z,1.60
2023-05-05T15:10:57.408Z,1.73
2023-05-05T15:13:25.094Z,2.03
2023-05-05T15:15:52.568Z,1.73
2023-05-05T15:18:20.191Z,1.75
2023-05-05T15:20:47.496Z,1.52
2023-05-05T15:23:15.746Z,2.20
2023-05-05T15:25:43.297Z,5.70
2023-05-05T15:28:11.048Z,10.45
2023-05-05T15:30:38.281Z,2.03
2023-05-05T15:33:06.017Z,1.80
2023-05-05T15:35:33.486Z,1.67
2023-05-05T15:38:01.029Z,1.80
2023-05-05T15:40:28.605Z,2.10
2023-05-05T15:42:56.338Z,1.80
2023-05-05T15:45:23.939Z,1.65
2023-05-05T15:47:52.930Z,1.80
2023-05-05T15:50:20.603Z,1.70
2023-05-05T15:52:49.971Z,1.75
2023-05-05T15:55:17.696Z,1.80
2023-05-05T15:57:45.257Z,1.48
2023-05-05T16:00:13.678Z,1.88
2023-05-05T16:02:41.330Z,1.80
2023-05-05T16:05:09.733Z,1.90
2023-05-05T16:07:37.916Z,3.40
2023-05-05T16:10:06.056Z,2.90
2023-05-05T16:12:33.717Z,1.80
2023-05-05T16:15:01.172Z,1.73
2023-05-05T16:17:28.812Z,1.70
2023-05-05T16:19:56.013Z,1.95
2023-05-05T16:22:23.889Z,8.43
2023-05-05T16:24:51.196Z,2.10
2023-05-05T16:27:18.766Z,1.80
2023-05-05T16:29:46.056Z,1.80
2023-05-05T16:32:13.638Z,1.70
2023-05-05T16:34:41.713Z,1.67
2023-05-05T16:37:09.238Z,2.20
2023-05-05T16:39:40.323Z,1.90
2023-05-05T16:42:08.295Z,1.80
2023-05-05T16:44:35.668Z,1.52
2023-05-05T16:47:03.254Z,1.58
2023-05-05T16:49:30.463Z,1.65
2023-05-05T16:51:58.383Z,1.70
2023-05-05T16:54:25.657Z,3.03
2023-05-05T16:56:53.858Z,8.18
2023-05-05T16:59:21.212Z,2.50
2023-05-05T17:01:50.284Z,8.32
2023-05-05T17:04:17.602Z,2.92
2023-05-05T17:06:45.235Z,1.90
2023-05-05T17:09:12.670Z,1.67
2023-05-05T17:11:40.234Z,1.80
2023-05-05T17:14:07.537Z,1.75
2023-05-05T17:16:35.157Z,1.83
2023-05-05T17:19:02.408Z,1.70
2023-05-05T17:21:29.988Z,1.40
2023-05-05T17:23:57.323Z,1.90
2023-05-05T17:26:25.130Z,1.80
2023-05-05T17:28:52.399Z,1.90
2023-05-05T17:31:19.929Z,2.92
2023-05-05T17:33:47.219Z,5.03
2023-05-05T17:36:14.749Z,2.38
2023-05-05T17:38:42.066Z,1.98
2023-05-05T17:41:09.629Z,1.90
2023-05-05T17:43:36.824Z,2.10
2023-05-05T17:46:04.536Z,1.90
2023-05-05T17:48:31.778Z,1.90
2023-05-05T17:50:59.381Z,2.13
2023-05-05T17:53:26.656Z,1.98
2023-05-05T17:55:54.703Z,2.55
2023-05-05T17:58:21.952Z,1.98
2023-05-05T18:00:49.557Z,1.80
2023-05-05T18:03:18.352Z,2.17
2023-05-05T18:05:46.258Z,4.40
2023-05-05T18:08:13.551Z,4.00
2023-05-05T18:10:41.163Z,2.60
2023-05-05T18:13:08.466Z,2.20
2023-05-05T18:15:36.054Z,2.53
2023-05-05T18:18:03.538Z,2.60
2023-05-05T18:20:31.107Z,2.70
2023-05-05T18:22:58.482Z,2.47
2023-05-05T18:25:26.258Z,2.10
2023-05-05T18:27:53.550Z,2.55
2023-05-05T18:30:21.172Z,2.80
2023-05-05T18:32:49.006Z,4.45
2023-05-05T18:35:16.874Z,21.83
2023-05-05T18:37:44.150Z,5.97
2023-05-05T18:40:12.307Z,3.70
2023-05-05T18:42:39.738Z,3.08
2023-05-05T18:45:09.218Z,3.58
2023-05-05T18:47:39.169Z,2.72
2023-05-05T18:50:08.507Z,2.85
2023-05-05T18:52:36.050Z,3.05
2023-05-05T18:55:04.130Z,2.80
2023-05-05T18:57:31.472Z,3.55
2023-05-05T18:59:59.032Z,3.40
2023-05-05T19:02:26.239Z,3.75
2023-05-05T19:04:53.972Z,3.60
2023-05-05T19:07:31.615Z,3.10
2023-05-05T19:10:04.335Z,3.15
2023-05-05T19:12:31.801Z,3.28
2023-05-05T19:14:59.430Z,3.25
2023-05-05T19:17:26.763Z,3.85
2023-05-05T19:19:54.372Z,3.30
2023-05-05T19:22:23.569Z,3.50
2023-05-05T19:24:51.107Z,3.75
2023-05-05T19:27:18.653Z,3.33
2023-05-05T19:29:49.231Z,3.40
2023-05-05T19:32:16.963Z,4.10
2023-05-05T19:34:44.723Z,3.75
2023-05-05T19:37:12.137Z,3.53
2023-05-05T19:39:39.750Z,3.90
2023-05-05T19:42:07.849Z,4.18
2023-05-05T19:44:35.339Z,4.47
2023-05-05T19:47:02.616Z,5.20
2023-05-05T19:49:30.144Z,5.63
2023-05-05T19:51:59.088Z,4.70
2023-05-05T19:54:28.933Z,4.63
2023-05-05T19:56:57.423Z,4.30
2023-05-05T19:59:25.072Z,3.45
2023-05-05T20:01:52.345Z,4.50
2023-05-05T20:04:19.976Z,3.67
2023-05-05T20:06:47.257Z,3.58
2023-05-05T20:09:15.335Z,3.97
2023-05-05T20:11:42.612Z,3.30
2023-05-05T20:14:10.372Z,3.75
2023-05-05T20:16:37.670Z,3.05
2023-05-05T20:19:05.465Z,3.50
2023-05-05T20:21:34.335Z,3.20
2023-05-05T20:24:01.899Z,3.25
2023-05-05T20:26:29.134Z,3.22
2023-05-05T20:28:56.698Z,3.33
2023-05-05T20:31:24.064Z,4.72
2023-05-05T20:33:51.687Z,3.00
2023-05-05T20:36:19.205Z,3.78
2023-05-05T20:38:46.809Z,4.05
2023-05-05T20:41:14.011Z,3.42
2023-05-05T20:43:41.600Z,3.70
2023-05-05T20:46:13.075Z,3.15
2023-05-05T20:48:42.921Z,3.33
2023-05-05T20:51:10.728Z,3.22
2023-05-05T20:53:38.287Z,3.65
2023-05-05T20:56:08.693Z,3.85
2023-05-05T20:58:36.755Z,3.47
2023-05-05T21:01:04.040Z,3.47
2023-05-05T21:03:31.755Z,3.47
2023-05-05T21:05:59.007Z,3.38
2023-05-05T21:08:26.918Z,3.63
2023-05-05T21:10:54.140Z,3.75
2023-05-05T21:13:21.747Z,3.70
2023-05-05T21:15:50.447Z,3.92
2023-05-05T21:18:18.006Z,4.30
2023-05-05T21:20:45.213Z,4.18
2023-05-05T21:23:12.775Z,3.85
2023-05-05T21:25:40.246Z,4.63
2023-05-05T21:28:07.789Z,4.50
2023-05-05T21:30:35.152Z,4.43
2023-05-05T21:33:02.701Z,4.55
2023-05-05T21:35:30.053Z,5.38
2023-05-05T21:37:57.730Z,4.47
2023-05-05T21:40:25.013Z,4.15
2023-05-05T21:42:52.544Z,4.03
2023-05-05T21:45:20.455Z,4.05
2023-05-05T21:47:48.060Z,3.80
2023-05-05T21:50:15.368Z,4.50
2023-05-05T21:52:42.840Z,4.15
2023-05-05T21:55:11.113Z,4.25
2023-05-05T21:57:38.684Z,4.00
2023-05-05T22:00:07.986Z,3.58
2023-05-05T22:02:35.793Z,4.10
2023-05-05T22:05:03.080Z,4.07
2023-05-05T22:07:31.723Z,3.92
2023-05-05T22:10:00.269Z,4.60
2023-05-05T22:12:27.870Z,4.47
2023-05-05T22:14:55.213Z,4.93
2023-05-05T22:17:22.742Z,4.68
2023-05-05T22:19:50.671Z,4.70
2023-05-05T22:22:18.157Z,5.07
2023-05-05T22:24:45.498Z,4.70
2023-05-05T22:27:13.005Z,5.30
2023-05-05T22:29:40.416Z,5.90
2023-05-05T22:32:07.883Z,5.63
2023-05-05T22:34:35.806Z,5.43
2023-05-05T22:37:03.348Z,5.50
2023-05-05T22:39:30.677Z,5.07
2023-05-05T22:41:58.234Z,5.65
2023-05-05T22:44:25.483Z,5.80
2023-05-05T22:46:53.039Z,5.43
2023-05-05T22:49:20.423Z,6.20
2023-05-05T22:51:48.277Z,6.80
2023-05-05T22:54:15.667Z,6.13
2023-05-05T22:56:43.276Z,5.88
2023-05-05T22:59:10.645Z,6.50
2023-05-05T23:01:38.871Z,6.13
2023-05-05T23:04:06.574Z,6.55
2023-05-05T23:06:34.075Z,6.65
2023-05-05T23:09:01.286Z,7.10
2023-05-05T23:11:28.865Z,7.30
2023-05-05T23:13:56.067Z,6.80
2023-05-05T23:16:23.651Z,7.05
2023-05-05T23:18:50.879Z,7.15
2023-05-05T23:21:18.331Z,7.03
2023-05-05T23:23:45.740Z,6.78
2023-05-05T23:26:14.119Z,6.72
2023-05-05T23:28:41.676Z,6.07
2023-05-05T23:31:09.813Z,6.95
2023-05-05T23:33:37.112Z,6.38
2023-05-05T23:36:05.262Z,6.75
2023-05-05T23:38:32.464Z,6.55
2023-05-05T23:40:59.989Z,6.72
2023-05-05T23:43:27.222Z,6.57
2023-05-05T23:45:54.776Z,6.65
2023-05-05T23:48:22.104Z,6.65
2023-05-05T23:50:49.589Z,6.90
2023-05-05T23:53:16.771Z,6.45
2023-05-05T23:55:44.262Z,7.28
2023-05-05T23:58:11.552Z,6.82
